Beecher Falls, VT (05902)

7:16 AM EST on December 26, 2014 (GMT -0500)
Pittsburg village | Change Station
CLOSE
Current Station
Personal Weather Station
Location: Pittsburg, NH
Elevation: 1362 ft
Nearby Weather Stations

Elev 1362 ft 45.05 °N, 71.39 °W | Updated 2 minutes ago

Overcast
Overcast
35.2 °F
Feels Like 35 °F
N
2.0
Wind Variable Wind from WSW
Gusts 2.0 mph

Today
High -- | Low -- °F
--% Chance of Precip.
Yesterday
High -- | Low -- °F
Precip. -- in
7:23 AM 4:10 PM
Waxing Crescent, 25% visible
Pressure 30.01 in
Visibility 10.0 miles
Clouds Overcast 4200 ft
Windchill 35 °F
Dew Point 26 °F
Humidity 69%
Rainfall 0.00 in
Snow Depth Not available.
UV 0 out of 12
Pollen .10 out of 12
Air Quality Not available.
Flu Activity Not available.
METAR KBML 261152Z AUTO 28008KT 250V310 10SM OVC042 03/M06 A2997 RMK AO2 SLP160 70005 T00331056 10039 20033 53021

More Conditions Fewer Conditions

Pressure 30.01 in
Visibility 10.0 miles
Clouds Overcast 4200 ft
Windchill 35 °F
Dew Point 26 °F
Humidity 69%
Rainfall 0.00 in
Snow Depth Not available.
UV 0 out of 12
Pollen .10 out of 12
Air Quality Not available.
Flu Activity Not available.
METAR KBML 261152Z AUTO 28008KT 250V310 10SM OVC042 03/M06 A2997 RMK AO2 SLP160 70005 T00331056 10039 20033 53021

More Conditions Fewer Conditions

10-Day Weather Forecast

Almanac

Astronomy

Dec. 26, 2014 Rise Set
Actual Time
Civil Twilight
Nautical Twilight
Astronomical Twilight
Moon
Length of Visible Light
Length of Day
Tomorrow will be .
, % of the Moon is Illuminated

Today's Extremes

State Highs State Lows

Community

WunderPhotos

Upload Photos

1,780,584 photos uploaded!

WunderBlogs® & News

Nearby

Air Quality

  Air Quality AQ Index Pollutant
Not available.

Snow Depth

Station Depth Elevation

Earthquake Activity

City Distance Mag. Time & Date
Minimum magnitude displayed is 2.5.

Coastal Water Temperatures

Place Temperature

Nearby Weather Stations